Time;durP1;ratioP1;P1;durP2;ratioP2;P2;SDS_P1;SDS_P2;PMS_P1;PMS_P2;Temp;Humidity;BMP_temperature;BMP_pressure;BME280_temperature;BME280_humidity;BME280_pressure;Samples;Min_cycle;Max_cycle;Signal;HPM_P1;HPM_P2
2023/10/19 00:01:27;;;;;;;19.23;12.32;;;8.50;99.90;;;;;;5115935;27;20051;-65
2023/10/19 00:03:55;;;;;;;18.63;13.35;;;8.50;99.90;;;;;;5100156;28;20278;-66
2023/10/19 00:06:23;;;;;;;17.77;12.85;;;8.60;99.90;;;;;;5078287;28;20047;-64
2023/10/19 00:08:52;;;;;;;19.60;13.75;;;8.60;99.90;;;;;;5096083;28;20479;-64
2023/10/19 00:11:22;;;;;;;20.40;14.15;;;8.60;99.90;;;;;;5095623;28;20050;-63
2023/10/19 00:13:50;;;;;;;18.05;12.10;;;8.50;99.90;;;;;;5110949;27;20054;-64
2023/10/19 00:16:17;;;;;;;19.50;12.85;;;8.60;99.90;;;;;;5115965;27;20046;-65
2023/10/19 00:18:44;;;;;;;20.67;13.48;;;8.50;99.90;;;;;;5115998;27;20063;-65
2023/10/19 00:21:25;;;;;;;19.30;14.20;;;8.60;99.90;;;;;;5115600;27;20055;-64
2023/10/19 00:23:57;;;;;;;22.67;13.13;;;8.60;99.90;;;;;;5083330;28;20478;-64
2023/10/19 00:26:29;;;;;;;18.95;13.00;;;8.50;99.90;;;;;;5094849;28;20040;-65
2023/10/19 00:28:57;;;;;;;18.75;13.60;;;8.40;99.90;;;;;;5078606;28;20060;-64
2023/10/19 00:31:27;;;;;;;21.08;13.82;;;8.40;99.90;;;;;;5095315;28;20048;-65
2023/10/19 00:33:56;;;;;;;18.80;14.75;;;8.50;99.90;;;;;;5110960;27;20044;-63
2023/10/19 00:36:25;;;;;;;20.08;12.77;;;8.40;99.90;;;;;;5114936;27;20051;-65
2023/10/19 00:38:55;;;;;;;20.33;13.57;;;8.40;99.90;;;;;;5116031;27;20078;-65
2023/10/19 00:41:29;;;;;;;23.58;14.10;;;8.50;99.90;;;;;;5115476;27;20058;-67
2023/10/19 00:44:02;;;;;;;22.50;15.70;;;8.50;99.90;;;;;;5099079;28;20055;-66
2023/10/19 00:49:09;;;;;;;19.13;13.13;;;8.50;99.90;;;;;;5094958;28;20149;-64
2023/10/19 00:54:16;;;;;;;19.83;12.82;;;8.40;99.90;;;;;;5111970;27;20047;-63
2023/10/19 00:56:48;;;;;;;20.60;13.77;;;8.60;99.90;;;;;;5115046;27;20054;-63
2023/10/19 01:01:49;;;;;;;18.15;13.38;;;8.50;99.90;;;;;;5114994;27;20061;-66
2023/10/19 01:04:22;;;;;;;20.85;14.93;;;8.50;99.90;;;;;;5096239;28;20055;-66
2023/10/19 01:09:38;;;;;;;17.55;12.52;;;8.50;99.90;;;;;;5094859;28;20040;-64
2023/10/19 01:15:52;;;;;;;18.67;13.50;;;8.70;99.90;;;;;;5074632;28;20044;-65
2023/10/19 01:17:57;;;;;;;16.30;12.20;;;8.70;99.90;;;;;;5079560;28;20063;-65
2023/10/19 01:28:17;;;;;;;15.20;11.23;;;8.60;99.90;;;;;;5114576;27;20575;-63
2023/10/19 01:30:45;;;;;;;15.13;11.80;;;8.60;99.90;;;;;;5114498;27;20537;-64
2023/10/19 01:33:24;;;;;;;14.27;10.63;;;8.60;99.90;;;;;;5104758;28;20394;-64
2023/10/19 01:38:35;;;;;;;14.75;10.43;;;8.70;99.90;;;;;;5094227;28;20043;-65
2023/10/19 01:41:07;;;;;;;15.32;10.80;;;8.70;99.90;;;;;;5077254;28;20425;-65
2023/10/19 01:43:34;;;;;;;13.80;10.82;;;8.80;99.90;;;;;;5105773;27;20058;-64
2023/10/19 01:46:13;;;;;;;14.07;10.88;;;8.70;99.90;;;;;;5113655;27;20055;-63
2023/10/19 01:48:44;;;;;;;14.15;10.48;;;8.80;99.90;;;;;;5114014;27;20047;-64
2023/10/19 01:51:11;;;;;;;15.25;10.60;;;8.80;99.90;;;;;;5114195;27;20116;-62
2023/10/19 01:53:44;;;;;;;13.65;9.85;;;8.80;99.90;;;;;;5100763;28;20489;-64
2023/10/19 01:56:12;;;;;;;13.15;10.00;;;8.80;99.90;;;;;;5093415;28;20047;-64
2023/10/19 01:58:40;;;;;;;17.00;12.30;;;8.80;99.90;;;;;;5093450;28;20473;-63
2023/10/19 02:03:43;;;;;;;14.77;11.35;;;8.90;99.90;;;;;;5105953;27;20054;-62
2023/10/19 02:06:17;;;;;;;14.73;10.27;;;8.90;99.90;;;;;;5113551;27;20420;-63
2023/10/19 02:08:51;;;;;;;15.07;11.52;;;8.90;99.90;;;;;;5113728;27;20059;-64
2023/10/19 02:11:22;;;;;;;14.57;10.20;;;8.90;99.90;;;;;;5113754;27;20484;-62
2023/10/19 02:13:51;;;;;;;15.95;11.20;;;8.90;99.90;;;;;;5099418;28;20100;-62
2023/10/19 02:16:32;;;;;;;14.60;10.95;;;8.90;99.90;;;;;;5093425;28;20055;-64
2023/10/19 02:19:01;;;;;;;15.63;10.77;;;8.80;99.90;;;;;;5093225;28;20044;-62
2023/10/19 02:21:30;;;;;;;15.50;11.25;;;8.90;99.90;;;;;;5076504;28;20386;-64
2023/10/19 02:23:57;;;;;;;15.43;11.70;;;8.90;99.90;;;;;;5108232;27;20090;-64
2023/10/19 02:26:27;;;;;;;16.40;11.68;;;8.90;99.90;;;;;;5113299;27;20048;-62
2023/10/19 02:28:55;;;;;;;15.40;11.02;;;8.90;99.90;;;;;;5113916;27;20397;-64
2023/10/19 02:31:23;;;;;;;16.83;13.15;;;9.00;99.90;;;;;;5113876;27;20477;-64
2023/10/19 02:33:58;;;;;;;14.82;11.10;;;8.80;99.90;;;;;;5099215;28;20040;-62
2023/10/19 02:36:29;;;;;;;15.95;11.85;;;9.00;99.90;;;;;;5092804;28;20056;-65
2023/10/19 02:38:59;;;;;;;16.25;10.90;;;8.90;99.90;;;;;;5076076;28;20045;-63
2023/10/19 02:41:27;;;;;;;13.77;10.45;;;9.00;99.90;;;;;;5076520;28;20386;-63
2023/10/19 02:46:38;;;;;;;15.07;11.45;;;9.00;99.90;;;;;;5112776;27;20115;-64
2023/10/19 02:49:13;;;;;;;13.43;10.05;;;9.00;99.90;;;;;;5113136;27;20043;-64
2023/10/19 02:51:44;;;;;;;13.35;10.05;;;9.10;99.90;;;;;;5113214;27;20104;-65
2023/10/19 02:54:21;;;;;;;14.20;10.48;;;9.20;99.90;;;;;;5095808;28;20047;-65
2023/10/19 02:56:49;;;;;;;13.45;9.55;;;9.20;99.90;;;;;;5075903;28;20104;-63
2023/10/19 02:59:16;;;;;;;13.15;10.32;;;9.20;99.90;;;;;;5092965;28;20048;-66
2023/10/19 03:01:46;;;;;;;14.07;10.60;;;9.00;99.90;;;;;;5084964;28;20138;-63
2023/10/19 03:04:12;;;;;;;14.40;10.60;;;9.00;99.90;;;;;;5079080;28;20052;-63
2023/10/19 03:06:40;;;;;;;15.18;11.10;;;9.20;99.90;;;;;;5092057;28;20067;-64
2023/10/19 03:09:28;;;;;;;14.63;10.52;;;9.20;99.90;;;;;;5075524;28;20494;-64
2023/10/19 03:11:59;;;;;;;15.77;11.48;;;9.10;99.90;;;;;;5092439;28;20058;-65
2023/10/19 03:14:26;;;;;;;14.50;11.10;;;9.20;99.90;;;;;;5111597;27;20263;-63
2023/10/19 03:16:56;;;;;;;14.07;10.88;;;9.30;99.90;;;;;;5099654;27;20043;-63
2023/10/19 03:19:26;;;;;;;16.90;12.05;;;9.30;99.90;;;;;;5117195;27;20432;-65
2023/10/19 03:21:55;;;;;;;16.40;12.40;;;9.30;99.90;;;;;;5116895;27;20062;-64
2023/10/19 03:24:40;;;;;;;15.43;11.55;;;9.30;99.90;;;;;;5098438;28;20069;-65
2023/10/19 03:27:16;;;;;;;16.92;11.90;;;9.30;99.90;;;;;;5096528;28;20059;-64
2023/10/19 03:30:02;;;;;;;17.38;12.00;;;9.40;99.90;;;;;;5096412;28;20051;-64
2023/10/19 03:32:32;;;;;;;17.23;13.13;;;9.30;99.90;;;;;;5096853;28;20059;-64
2023/10/19 03:35:03;;;;;;;16.02;11.63;;;9.50;99.90;;;;;;5096523;28;20051;-64
2023/10/19 03:37:30;;;;;;;15.43;12.05;;;9.30;99.90;;;;;;5096490;28;20051;-64
2023/10/19 03:39:56;;;;;;;17.10;11.95;;;9.50;99.90;;;;;;5079712;28;20062;-64
2023/10/19 03:42:26;;;;;;;15.10;12.05;;;9.50;99.90;;;;;;5097016;27;20052;-62
2023/10/19 03:44:57;;;;;;;16.95;11.70;;;9.60;99.90;;;;;;5116655;27;20525;-64
2023/10/19 03:47:43;;;;;;;15.77;12.18;;;9.50;99.90;;;;;;5116527;27;20402;-64
2023/10/19 03:50:14;;;;;;;15.15;12.57;;;9.50;99.90;;;;;;5116441;27;20039;-65
2023/10/19 03:52:41;;;;;;;15.65;11.85;;;9.60;99.90;;;;;;5112581;28;20605;-62
2023/10/19 03:55:12;;;;;;;14.85;11.07;;;9.60;99.90;;;;;;5096112;28;20293;-64
2023/10/19 03:57:46;;;;;;;15.30;12.68;;;9.70;99.90;;;;;;5078789;28;20048;-63
2023/10/19 04:00:21;;;;;;;15.02;12.52;;;9.70;99.90;;;;;;5079162;28;20395;-65
2023/10/19 04:02:48;;;;;;;15.02;12.02;;;9.60;99.90;;;;;;5100567;27;20043;-64
2023/10/19 04:05:20;;;;;;;14.45;11.23;;;9.80;99.90;;;;;;5116174;27;20051;-62
2023/10/19 04:07:49;;;;;;;14.98;11.25;;;9.70;99.90;;;;;;5115983;27;20055;-64
2023/10/19 04:13:00;;;;;;;15.43;12.02;;;9.60;99.90;;;;;;5109662;28;20128;-63
2023/10/19 04:15:34;;;;;;;14.90;11.23;;;9.70;99.90;;;;;;5095152;28;20120;-65
2023/10/19 04:18:00;;;;;;;16.83;12.00;;;9.70;99.90;;;;;;5095898;28;20050;-63
2023/10/19 04:22:53;;;;;;;16.75;11.82;;;9.80;99.90;;;;;;5101119;27;20459;-63
2023/10/19 04:25:20;;;;;;;16.30;11.80;;;9.80;99.90;;;;;;5115899;27;20043;-63
2023/10/19 04:27:48;;;;;;;14.50;11.52;;;9.70;99.90;;;;;;5115657;27;20061;-65
2023/10/19 04:30:16;;;;;;;15.60;12.27;;;9.70;99.90;;;;;;5115648;27;20047;-64
2023/10/19 04:32:43;;;;;;;15.68;12.43;;;9.90;99.90;;;;;;5094998;28;20432;-63
2023/10/19 04:35:10;;;;;;;16.15;12.45;;;9.80;99.90;;;;;;5095275;28;20089;-65
2023/10/19 04:37:36;;;;;;;16.80;13.05;;;9.80;99.90;;;;;;5077813;28;20452;-65
2023/10/19 04:40:03;;;;;;;16.73;12.90;;;9.90;99.90;;;;;;5078838;28;20070;-65
2023/10/19 04:42:29;;;;;;;18.27;13.85;;;10.00;99.90;;;;;;5096490;27;20112;-64
2023/10/19 04:44:55;;;;;;;20.75;12.80;;;9.80;99.90;;;;;;5115456;27;20049;-65
2023/10/19 04:47:22;;;;;;;17.40;12.65;;;10.00;99.90;;;;;;5115157;27;20462;-66
2023/10/19 04:49:48;;;;;;;18.95;13.77;;;10.10;99.90;;;;;;5115406;27;20141;-65
2023/10/19 04:52:14;;;;;;;18.38;14.27;;;10.00;99.90;;;;;;5115154;27;20468;-66
2023/10/19 04:54:42;;;;;;;17.48;13.05;;;10.10;99.90;;;;;;5097789;27;20047;-65
2023/10/19 04:57:08;;;;;;;16.20;12.77;;;9.90;99.90;;;;;;5097988;27;20043;-65
2023/10/19 04:59:34;;;;;;;19.23;13.15;;;10.20;99.90;;;;;;5115126;27;20047;-65
2023/10/19 05:02:05;;;;;;;19.63;13.68;;;10.20;99.90;;;;;;5096018;28;20100;-65
2023/10/19 05:04:31;;;;;;;18.80;13.63;;;10.20;99.90;;;;;;5112062;27;20047;-64
2023/10/19 05:06:58;;;;;;;17.98;14.48;;;10.10;99.90;;;;;;5114256;27;20047;-62
2023/10/19 05:09:24;;;;;;;18.23;14.18;;;10.20;99.90;;;;;;5114520;27;20050;-65
2023/10/19 05:11:52;;;;;;;18.55;13.23;;;10.20;99.90;;;;;;5079401;28;20062;-65
2023/10/19 05:14:20;;;;;;;18.30;13.95;;;10.20;99.90;;;;;;5095833;28;20411;-64
2023/10/19 05:16:46;;;;;;;21.08;14.35;;;10.30;99.90;;;;;;5093471;28;20048;-64
2023/10/19 05:19:13;;;;;;;21.42;15.50;;;10.30;99.90;;;;;;5094284;28;20498;-64
2023/10/19 05:21:39;;;;;;;18.55;13.93;;;10.30;99.90;;;;;;5092394;28;20425;-62
2023/10/19 05:24:06;;;;;;;18.75;14.65;;;10.40;99.90;;;;;;5108424;27;20051;-64
2023/10/19 05:26:35;;;;;;;19.38;14.75;;;10.30;99.90;;;;;;5114338;27;20135;-65
2023/10/19 05:29:02;;;;;;;20.95;14.68;;;10.40;99.90;;;;;;5114723;27;20051;-65
2023/10/19 05:31:31;;;;;;;20.38;14.32;;;10.30;99.90;;;;;;5091009;28;20054;-64
2023/10/19 05:33:57;;;;;;;21.55;15.32;;;10.30;99.90;;;;;;5093231;28;20055;-64
2023/10/19 05:36:24;;;;;;;19.45;15.30;;;10.50;99.90;;;;;;5092473;28;20275;-63
2023/10/19 05:38:51;;;;;;;22.17;14.73;;;10.30;99.90;;;;;;5092668;28;20079;-64
2023/10/19 05:41:21;;;;;;;21.88;14.82;;;10.50;99.90;;;;;;5090684;28;20056;-64
2023/10/19 05:43:47;;;;;;;23.73;16.45;;;10.50;99.90;;;;;;5078472;28;20480;-63
2023/10/19 05:46:16;;;;;;;21.70;15.85;;;10.60;99.90;;;;;;5067794;28;20044;-64
2023/10/19 05:48:43;;;;;;;22.25;15.75;;;10.60;99.90;;;;;;5086936;28;20064;-63
2023/10/19 05:51:09;;;;;;;19.30;14.63;;;10.50;99.90;;;;;;5088771;28;20505;-64
2023/10/19 05:53:37;;;;;;;20.15;15.25;;;10.60;99.90;;;;;;5087019;28;20050;-63
2023/10/19 05:56:03;;;;;;;20.40;15.25;;;10.60;99.90;;;;;;5052919;28;20178;-65
2023/10/19 05:58:29;;;;;;;21.33;14.55;;;10.50;99.90;;;;;;5070197;28;20380;-64
2023/10/19 06:00:58;;;;;;;22.15;14.82;;;10.70;99.90;;;;;;5068924;28;20048;-63
2023/10/19 06:03:25;;;;;;;22.08;14.73;;;10.60;99.90;;;;;;5072222;28;20044;-64
2023/10/19 06:05:51;;;;;;;22.52;15.93;;;10.60;99.90;;;;;;5052922;28;20139;-65
2023/10/19 06:08:18;;;;;;;21.95;15.18;;;10.70;99.90;;;;;;5081843;28;20044;-63
2023/10/19 06:10:51;;;;;;;23.63;15.77;;;10.80;99.90;;;;;;5088092;28;20387;-66
2023/10/19 06:13:18;;;;;;;24.17;16.92;;;10.70;99.90;;;;;;5081225;28;20041;-65
2023/10/19 06:15:44;;;;;;;22.98;15.95;;;10.80;99.90;;;;;;5072214;28;20051;-65
2023/10/19 06:18:11;;;;;;;23.23;15.63;;;10.90;99.90;;;;;;5086779;28;20052;-63
2023/10/19 06:20:43;;;;;;;22.08;15.40;;;10.90;99.90;;;;;;5088764;28;20051;-63
2023/10/19 06:23:11;;;;;;;23.17;16.05;;;10.90;99.90;;;;;;5082765;28;20464;-64
2023/10/19 06:25:38;;;;;;;21.38;14.98;;;10.90;99.90;;;;;;5089282;28;20070;-63
2023/10/19 06:28:05;;;;;;;23.90;16.05;;;11.00;99.90;;;;;;5089229;28;20052;-64
2023/10/19 06:30:32;;;;;;;21.67;15.85;;;10.80;99.90;;;;;;5083685;28;20048;-65
2023/10/19 06:33:03;;;;;;;23.25;16.55;;;10.90;99.90;;;;;;5080393;28;20102;-63
2023/10/19 06:35:33;;;;;;;23.88;17.20;;;10.90;99.90;;;;;;5091264;28;20048;-65
2023/10/19 06:38:00;;;;;;;22.35;16.83;;;11.10;99.90;;;;;;5091169;28;20059;-65
2023/10/19 06:40:27;;;;;;;20.73;16.42;;;10.90;99.90;;;;;;5071087;28;20056;-64
2023/10/19 06:42:58;;;;;;;22.25;15.60;;;11.10;99.90;;;;;;5077980;28;20051;-66
2023/10/19 06:45:25;;;;;;;24.13;16.50;;;11.20;99.90;;;;;;5094547;28;20440;-63
2023/10/19 06:47:52;;;;;;;23.30;16.50;;;11.00;99.90;;;;;;5083208;28;20509;-66
2023/10/19 06:50:20;;;;;;;21.88;15.43;;;11.20;99.90;;;;;;5091244;28;20043;-64
2023/10/19 06:52:48;;;;;;;22.55;16.05;;;11.30;99.90;;;;;;5091102;28;20059;-65
2023/10/19 06:55:25;;;;;;;23.77;17.23;;;11.30;99.90;;;;;;5074286;28;20452;-65
2023/10/19 06:57:53;;;;;;;23.55;16.50;;;11.20;99.90;;;;;;5082411;28;20066;-66
2023/10/19 07:00:21;;;;;;;22.17;15.98;;;11.20;99.90;;;;;;5077474;28;20066;-63
2023/10/19 07:02:50;;;;;;;24.55;16.25;;;11.20;99.90;;;;;;5091435;28;20059;-64
2023/10/19 07:05:24;;;;;;;24.38;17.10;;;11.20;99.90;;;;;;5088755;28;20502;-64
2023/10/19 07:07:54;;;;;;;22.92;16.30;;;11.40;99.90;;;;;;5094687;28;20059;-65
2023/10/19 07:10:21;;;;;;;23.08;16.48;;;11.30;99.90;;;;;;5094134;28;20058;-66
2023/10/19 07:12:51;;;;;;;22.42;16.38;;;11.20;99.90;;;;;;5091457;28;20516;-64
2023/10/19 07:15:21;;;;;;;27.90;17.20;;;11.40;99.90;;;;;;5058147;28;20066;-64
2023/10/19 07:17:50;;;;;;;23.45;16.48;;;11.20;99.90;;;;;;5088558;28;20085;-64
2023/10/19 07:20:26;;;;;;;24.40;16.42;;;11.30;99.90;;;;;;5093766;28;20385;-64
2023/10/19 07:22:53;;;;;;;25.70;17.17;;;11.50;99.90;;;;;;5073497;28;20052;-66
2023/10/19 07:25:21;;;;;;;21.67;15.48;;;11.30;99.90;;;;;;5057801;28;20047;-64
2023/10/19 07:27:49;;;;;;;21.27;15.63;;;11.30;99.90;;;;;;5074398;28;20064;-64
2023/10/19 07:30:27;;;;;;;21.33;15.73;;;11.50;99.90;;;;;;5057085;28;20361;-64
2023/10/19 07:32:55;;;;;;;23.48;15.85;;;11.60;99.90;;;;;;5077397;28;20054;-65
2023/10/19 07:35:22;;;;;;;24.10;16.25;;;11.60;99.90;;;;;;5094691;28;20044;-66
2023/10/19 07:37:50;;;;;;;23.38;15.93;;;11.50;99.90;;;;;;5092983;28;20047;-65
2023/10/19 07:40:17;;;;;;;21.80;16.30;;;11.70;99.90;;;;;;5074025;28;20577;-64
2023/10/19 07:42:44;;;;;;;24.65;16.48;;;11.50;99.90;;;;;;5072445;28;20121;-63
2023/10/19 07:45:14;;;;;;;20.92;15.38;;;11.70;99.90;;;;;;5090815;28;20504;-64
2023/10/19 07:47:41;;;;;;;22.42;16.88;;;11.70;99.90;;;;;;5090669;28;20063;-63
2023/10/19 07:50:15;;;;;;;23.35;15.52;;;11.60;99.90;;;;;;5090394;28;20379;-63
2023/10/19 07:52:43;;;;;;;24.08;16.30;;;11.80;99.90;;;;;;5071233;28;20044;-63
2023/10/19 07:55:10;;;;;;;24.55;15.55;;;11.90;99.90;;;;;;5070276;28;20055;-66
2023/10/19 07:57:36;;;;;;;21.67;15.57;;;11.90;99.90;;;;;;5070560;28;20044;-65
2023/10/19 08:00:03;;;;;;;25.55;16.38;;;11.80;99.90;;;;;;5069817;28;20117;-64
2023/10/19 08:02:30;;;;;;;23.15;15.80;;;12.00;99.90;;;;;;5073792;28;20049;-64
2023/10/19 08:04:56;;;;;;;23.30;15.75;;;12.00;99.90;;;;;;5073890;28;20373;-65
2023/10/19 08:07:26;;;;;;;22.30;16.00;;;12.10;99.90;;;;;;5073905;28;20055;-65
2023/10/19 08:09:52;;;;;;;23.27;15.43;;;12.10;99.90;;;;;;5073753;28;20048;-65
2023/10/19 08:12:19;;;;;;;23.02;16.48;;;12.00;99.90;;;;;;5074069;28;20163;-63
2023/10/19 08:14:46;;;;;;;24.52;15.68;;;12.00;99.90;;;;;;5092650;28;20132;-63
2023/10/19 08:17:12;;;;;;;23.92;16.10;;;12.10;99.90;;;;;;5094287;28;20059;-65
2023/10/19 08:19:39;;;;;;;21.75;15.27;;;12.20;99.90;;;;;;5093572;28;20044;-64
2023/10/19 08:22:05;;;;;;;21.98;15.40;;;12.30;99.90;;;;;;5094125;28;20655;-63
2023/10/19 08:24:34;;;;;;;24.30;16.25;;;12.30;99.90;;;;;;5076720;28;20052;-64
2023/10/19 08:27:01;;;;;;;21.77;14.98;;;12.20;99.90;;;;;;5074006;28;20044;-64
2023/10/19 08:29:30;;;;;;;22.77;15.85;;;12.30;99.90;;;;;;5073946;28;20048;-64
2023/10/19 08:31:56;;;;;;;22.70;15.40;;;12.30;99.90;;;;;;5093611;28;20103;-65
2023/10/19 08:34:25;;;;;;;23.40;16.13;;;12.30;99.90;;;;;;5077666;28;20048;-65
2023/10/19 08:36:51;;;;;;;22.08;15.00;;;12.50;99.90;;;;;;5073518;28;20322;-65
2023/10/19 08:39:18;;;;;;;24.00;16.70;;;12.40;99.90;;;;;;5086946;28;20477;-64
2023/10/19 08:41:44;;;;;;;22.85;15.23;;;12.40;99.90;;;;;;5077009;28;20421;-63
2023/10/19 08:44:10;;;;;;;20.45;14.20;;;12.50;99.90;;;;;;5110422;27;20077;-64
2023/10/19 08:46:44;;;;;;;22.95;15.25;;;12.50;99.90;;;;;;5117269;27;20357;-65
2023/10/19 08:49:15;;;;;;;21.58;14.77;;;12.60;99.90;;;;;;5116726;27;20108;-65
2023/10/19 08:51:44;;;;;;;21.33;15.00;;;12.70;99.90;;;;;;5116807;27;20051;-63
2023/10/19 08:54:12;;;;;;;19.30;14.45;;;12.90;99.90;;;;;;5103213;28;20125;-65
2023/10/19 08:56:41;;;;;;;22.17;15.15;;;12.90;99.90;;;;;;5096978;28;20048;-65
2023/10/19 08:59:08;;;;;;;21.92;15.95;;;13.00;99.90;;;;;;5096434;28;20043;-65
2023/10/19 09:01:37;;;;;;;22.90;15.55;;;13.10;99.90;;;;;;5096515;28;20066;-64
2023/10/19 09:04:05;;;;;;;21.67;16.55;;;13.00;99.90;;;;;;5109319;27;20107;-63
2023/10/19 09:06:41;;;;;;;21.27;15.20;;;13.10;99.90;;;;;;5116667;27;20150;-64
2023/10/19 09:09:19;;;;;;;23.83;15.15;;;13.20;99.90;;;;;;5099855;27;20051;-65
2023/10/19 09:11:49;;;;;;;20.90;14.73;;;13.10;99.90;;;;;;5116780;27;20047;-65
2023/10/19 09:14:17;;;;;;;20.85;15.55;;;13.30;99.90;;;;;;5101741;28;20054;-65
2023/10/19 09:16:57;;;;;;;18.00;13.35;;;13.20;99.90;;;;;;5096744;28;20362;-63
2023/10/19 09:19:43;;;;;;;22.13;14.38;;;13.30;99.90;;;;;;5079401;28;20039;-66
2023/10/19 09:22:18;;;;;;;19.70;13.60;;;13.20;99.90;;;;;;5095884;28;20052;-66
2023/10/19 09:24:45;;;;;;;17.88;12.40;;;13.30;99.90;;;;;;5114597;27;20054;-63
2023/10/19 09:27:12;;;;;;;17.92;13.25;;;13.30;99.90;;;;;;5116602;27;20051;-64
2023/10/19 09:29:40;;;;;;;18.42;13.18;;;13.20;99.90;;;;;;5116503;27;20055;-66
2023/10/19 09:32:07;;;;;;;18.67;12.82;;;13.50;99.90;;;;;;5105023;28;20039;-66
2023/10/19 09:34:35;;;;;;;16.13;11.98;;;13.50;99.90;;;;;;5096034;28;20043;-63
2023/10/19 09:37:03;;;;;;;20.50;13.48;;;13.30;99.90;;;;;;5095718;28;20055;-64
2023/10/19 09:39:34;;;;;;;19.27;13.00;;;13.60;99.90;;;;;;5111194;27;20051;-63
2023/10/19 09:42:06;;;;;;;21.27;13.70;;;13.60;99.90;;;;;;5116616;27;20470;-65
2023/10/19 09:44:43;;;;;;;18.58;14.35;;;13.50;99.90;;;;;;5095940;28;20063;-64
2023/10/19 09:47:19;;;;;;;16.85;14.02;;;13.60;99.90;;;;;;5091056;28;20510;-64
2023/10/19 09:49:45;;;;;;;17.73;14.10;;;13.60;99.90;;;;;;5092309;28;20044;-63
2023/10/19 09:52:14;;;;;;;19.23;14.43;;;13.50;99.90;;;;;;5091989;28;20524;-65
2023/10/19 09:55:11;;;;;;;20.52;13.98;;;13.70;99.90;;;;;;5096708;28;20325;-64
2023/10/19 09:57:40;;;;;;;18.15;13.13;;;13.80;99.90;;;;;;5092360;28;20105;-65
2023/10/19 10:00:12;;;;;;;21.30;14.23;;;13.80;99.90;;;;;;5092067;28;20059;-66
2023/10/19 10:02:46;;;;;;;20.58;14.73;;;13.60;99.90;;;;;;5092109;28;20101;-65
2023/10/19 10:05:43;;;;;;;21.45;15.00;;;13.80;99.90;;;;;;5095757;28;20062;-65
2023/10/19 10:08:18;;;;;;;17.83;13.55;;;14.00;99.90;;;;;;5112111;28;20105;-64
2023/10/19 10:10:46;;;;;;;20.10;14.90;;;14.00;99.90;;;;;;5112361;28;20048;-63
2023/10/19 10:13:27;;;;;;;17.48;13.50;;;14.10;99.90;;;;;;5106647;28;20048;-63
2023/10/19 10:15:55;;;;;;;19.08;14.27;;;14.10;99.90;;;;;;5091771;28;20117;-63
2023/10/19 10:18:26;;;;;;;17.92;14.25;;;14.50;99.90;;;;;;5091369;28;20040;-64
2023/10/19 10:21:21;;;;;;;17.63;13.55;;;14.50;99.90;;;;;;5056774;28;20389;-65
2023/10/19 10:24:00;;;;;;;19.42;13.70;;;14.80;99.90;;;;;;5078795;28;20075;-66
2023/10/19 10:26:29;;;;;;;18.70;13.75;;;14.90;99.90;;;;;;5092001;28;20058;-64
2023/10/19 10:29:21;;;;;;;16.40;13.27;;;15.00;99.90;;;;;;5074398;28;20132;-63
2023/10/19 10:31:49;;;;;;;18.65;12.90;;;15.00;99.90;;;;;;5074807;28;20052;-65
2023/10/19 10:34:36;;;;;;;17.38;13.23;;;15.00;99.90;;;;;;5104793;28;20039;-62
2023/10/19 10:37:07;;;;;;;18.00;13.85;;;15.10;99.90;;;;;;5090374;28;20044;-63
2023/10/19 10:39:36;;;;;;;16.88;12.95;;;15.20;99.90;;;;;;5106544;28;20047;-66
2023/10/19 10:42:04;;;;;;;14.23;11.73;;;15.00;99.90;;;;;;5109783;28;20356;-63
2023/10/19 10:44:45;;;;;;;16.75;11.98;;;15.00;99.90;;;;;;5090242;28;20051;-63
2023/10/19 10:47:21;;;;;;;14.13;11.20;;;15.20;99.90;;;;;;5091146;28;20770;-64
2023/10/19 10:49:55;;;;;;;14.15;10.98;;;15.20;99.90;;;;;;5091192;28;20044;-65
2023/10/19 10:52:28;;;;;;;12.18;10.25;;;15.20;99.90;;;;;;5074440;28;20048;-65
2023/10/19 10:54:59;;;;;;;17.35;11.07;;;15.20;99.90;;;;;;5088927;28;20055;-64
2023/10/19 10:57:32;;;;;;;16.02;11.60;;;15.20;99.90;;;;;;5090792;28;20108;-64
2023/10/19 11:00:15;;;;;;;13.50;11.48;;;15.30;99.90;;;;;;5090752;28;20151;-63
2023/10/19 11:02:46;;;;;;;16.23;11.45;;;15.40;99.90;;;;;;5089959;28;20067;-63
2023/10/19 11:05:14;;;;;;;16.35;12.45;;;15.50;99.90;;;;;;5070501;28;20102;-63
2023/10/19 11:08:16;;;;;;;14.70;11.77;;;15.40;99.90;;;;;;5053205;28;20059;-64
2023/10/19 11:10:46;;;;;;;15.52;11.90;;;15.40;99.90;;;;;;5066223;28;20156;-64
2023/10/19 11:13:18;;;;;;;14.48;10.63;;;15.60;99.90;;;;;;5070683;28;20040;-64
2023/10/19 11:15:56;;;;;;;13.20;11.32;;;15.90;99.90;;;;;;5070384;28;20063;-63
2023/10/19 11:18:32;;;;;;;13.57;9.85;;;16.00;99.90;;;;;;5070378;28;20106;-63
2023/10/19 11:21:00;;;;;;;10.65;8.65;;;16.00;99.90;;;;;;5070780;28;20056;-66
2023/10/19 11:23:36;;;;;;;11.65;7.75;;;16.00;99.90;;;;;;5077202;28;20048;-65
2023/10/19 11:26:02;;;;;;;11.82;7.00;;;16.40;99.90;;;;;;5090696;28;20055;-64
2023/10/19 11:28:29;;;;;;;9.10;6.70;;;16.60;99.90;;;;;;5090332;28;20048;-64
2023/10/19 11:31:10;;;;;;;8.77;6.55;;;16.70;99.90;;;;;;5090674;28;20048;-63
2023/10/19 11:33:37;;;;;;;10.70;6.75;;;16.80;99.90;;;;;;5081353;28;20081;-68
2023/10/19 11:36:03;;;;;;;10.77;6.55;;;16.80;99.90;;;;;;5074605;28;20044;-64
2023/10/19 11:38:29;;;;;;;11.05;6.68;;;16.80;99.90;;;;;;5070976;28;20416;-66
2023/10/19 11:40:56;;;;;;;10.43;6.28;;;16.70;99.90;;;;;;5074764;28;20114;-63
2023/10/19 11:43:22;;;;;;;12.50;6.43;;;16.90;99.90;;;;;;5079631;28;20052;-68
2023/10/19 11:45:48;;;;;;;9.25;6.18;;;16.70;99.90;;;;;;5094428;28;20071;-63
2023/10/19 11:48:15;;;;;;;6.50;5.40;;;17.00;99.90;;;;;;5093489;28;20052;-63
2023/10/19 11:50:42;;;;;;;9.27;5.90;;;16.80;99.90;;;;;;5077378;28;20549;-64
2023/10/19 11:53:09;;;;;;;12.23;8.93;;;16.70;99.90;;;;;;5092735;28;20053;-65
2023/10/19 11:55:36;;;;;;;11.38;10.07;;;16.90;99.90;;;;;;5077638;28;20479;-63
2023/10/19 11:58:03;;;;;;;13.20;9.85;;;17.00;99.90;;;;;;5094213;28;20055;-63
2023/10/19 12:00:37;;;;;;;12.63;10.32;;;17.00;99.90;;;;;;5094260;28;20052;-63
2023/10/19 12:03:04;;;;;;;12.15;9.52;;;16.90;99.90;;;;;;5093475;28;20052;-64
2023/10/19 12:05:36;;;;;;;15.25;10.85;;;16.90;99.90;;;;;;5094706;28;20105;-64
2023/10/19 12:08:03;;;;;;;17.30;11.80;;;16.90;99.90;;;;;;5094159;28;20056;-63
2023/10/19 12:10:35;;;;;;;14.20;11.30;;;16.90;99.90;;;;;;5094013;28;20048;-64
2023/10/19 12:13:02;;;;;;;;;;;16.60;99.90;;;;;;5091524;28;20435;-64
2023/10/19 12:15:30;;;;;;;13.48;11.90;;;16.70;99.90;;;;;;5057168;28;20097;-64
2023/10/19 12:17:57;;;;;;;15.60;11.48;;;16.60;99.90;;;;;;5073320;28;20054;-65
2023/10/19 12:20:23;;;;;;;15.15;12.00;;;16.50;99.90;;;;;;5056983;28;20052;-64
2023/10/19 12:22:53;;;;;;;15.38;11.93;;;16.50;99.90;;;;;;5074019;28;20056;-65
2023/10/19 12:25:28;;;;;;;16.95;12.80;;;16.30;99.90;;;;;;5094048;28;20056;-65
2023/10/19 12:27:56;;;;;;;18.95;13.13;;;16.20;99.90;;;;;;5093894;28;20062;-65
2023/10/19 12:30:25;;;;;;;16.75;12.85;;;16.10;99.90;;;;;;5093611;28;20048;-65
2023/10/19 12:32:55;;;;;;;16.60;12.85;;;16.10;99.90;;;;;;5092293;28;20048;-65
2023/10/19 12:35:30;;;;;;;15.38;12.40;;;16.20;99.90;;;;;;5057029;28;20084;-65
2023/10/19 12:37:57;;;;;;;16.05;14.05;;;15.90;99.90;;;;;;5075313;28;20060;-64
2023/10/19 12:40:26;;;;;;;17.73;13.25;;;16.10;99.90;;;;;;5076823;28;20048;-66
2023/10/19 12:42:57;;;;;;;17.85;13.65;;;16.00;99.90;;;;;;5097612;27;20080;-65
2023/10/19 12:45:27;;;;;;;17.83;13.63;;;15.90;99.90;;;;;;5117361;27;20051;-65
2023/10/19 12:47:53;;;;;;;17.42;13.93;;;16.00;99.90;;;;;;5115816;27;20051;-64
2023/10/19 12:50:25;;;;;;;20.23;14.48;;;15.70;99.90;;;;;;5117119;27;20377;-65
2023/10/19 12:52:51;;;;;;;20.38;15.57;;;15.90;99.90;;;;;;5098733;27;20055;-66
2023/10/19 12:55:18;;;;;;;17.92;15.43;;;15.70;99.90;;;;;;5076557;28;20063;-65
2023/10/19 12:57:45;;;;;;;20.08;15.73;;;15.80;99.90;;;;;;5076418;28;20047;-63
2023/10/19 13:00:35;;;;;;;22.05;16.05;;;15.70;99.90;;;;;;5084559;28;20039;-64
2023/10/19 13:03:06;;;;;;;19.75;16.98;;;15.70;99.90;;;;;;5098570;27;20063;-64
2023/10/19 13:05:34;;;;;;;17.98;15.30;;;15.70;99.90;;;;;;5116602;27;20047;-63
2023/10/19 13:08:01;;;;;;;20.55;15.85;;;15.70;99.90;;;;;;5116672;27;20477;-64
2023/10/19 13:10:32;;;;;;;19.50;15.93;;;15.80;99.90;;;;;;5099749;27;20062;-64
2023/10/19 13:13:03;;;;;;;18.77;15.00;;;15.80;99.90;;;;;;5114824;27;20074;-63
2023/10/19 13:15:36;;;;;;;18.25;15.00;;;15.90;99.90;;;;;;5096333;28;20632;-65
2023/10/19 13:18:03;;;;;;;19.13;15.27;;;15.80;99.90;;;;;;5079488;28;20424;-64
2023/10/19 13:20:36;;;;;;;19.33;14.60;;;16.00;99.90;;;;;;5096417;28;20051;-65